Time;durP1;ratioP1;P1;durP2;ratioP2;P2;SDS_P1;SDS_P2;PMS_P1;PMS_P2;Temp;Humidity;BMP_temperature;BMP_pressure;BME280_temperature;BME280_humidity;BME280_pressure;Samples;Min_cycle;Max_cycle;Signal;HPM_P1;HPM_P2
2022/04/23 05:11:33;;;;;;;;;;;;;;;14.82;59.45;98807.69;4444416;32;789871;-83
2022/04/23 05:14:00;;;;;;;;;;;;;;;14.82;59.45;98807.69;4467975;32;20051;-83
2022/04/23 05:16:27;;;;;;;;;;;;;;;14.33;60.56;98813.72;4461888;32;19999;-83
2022/04/23 05:18:54;;;;;;;;;;;;;;;14.49;60.21;98808.25;4469762;32;19980;-84
2022/04/23 05:21:22;;;;;;;;;;;;;;;14.43;60.50;98820.47;4455959;32;19988;-84
2022/04/23 05:23:48;;;;;;;;;;;;;;;14.34;61.00;98820.63;4467300;32;20685;-84
2022/04/23 05:26:15;;;;;;;;;;;;;;;14.48;60.81;98828.22;4456649;32;19981;-84
2022/04/23 05:28:42;;;;;;;;;;;;;;;14.60;60.23;98828.03;4469223;32;20022;-84
2022/04/23 05:31:09;;;;;;;;;;;;;;;14.70;59.76;98823.53;4467417;32;19993;-84
2022/04/23 05:33:36;;;;;;;;;;;;;;;14.48;61.05;98822.16;4436687;32;19989;-84
2022/04/23 05:36:07;;;;;;;;;;;;;;;14.61;60.69;98824.56;4457004;32;20023;-84
2022/04/23 05:38:37;;;;;;;;;;;;;;;14.71;60.47;98833.09;4469827;32;19996;-84
2022/04/23 05:41:04;;;;;;;;;;;;;;;14.56;60.96;98830.75;4457967;32;20001;-84
2022/04/23 05:43:31;;;;;;;;;;;;;;;14.71;60.50;98835.69;4457793;32;19981;-84
2022/04/23 05:46:00;;;;;;;;;;;;;;;14.67;60.61;98831.41;4469574;32;20363;-84
2022/04/23 05:48:27;;;;;;;;;;;;;;;14.71;60.39;98830.50;4469937;32;19991;-84
2022/04/23 05:50:54;;;;;;;;;;;;;;;14.89;60.00;98835.34;4467826;32;19997;-84
2022/04/23 05:53:21;;;;;;;;;;;;;;;14.89;60.60;98845.78;4463572;32;19980;-85
2022/04/23 05:55:49;;;;;;;;;;;;;;;14.91;60.66;98847.53;4431388;32;20040;-84
2022/04/23 05:58:16;;;;;;;;;;;;;;;15.11;59.32;98850.63;4461694;32;19977;-85
2022/04/23 06:00:43;;;;;;;;;;;;;;;15.25;59.17;98848.63;4446938;32;19996;-84
2022/04/23 06:03:12;;;;;;;;;;;;;;;15.23;59.09;98849.53;4438202;32;19991;-85
2022/04/23 06:05:40;;;;;;;;;;;;;;;15.34;58.52;98848.44;4443476;32;20001;-85
2022/04/23 06:08:07;;;;;;;;;;;;;;;15.55;58.66;98851.53;4445633;32;20037;-85
2022/04/23 06:10:34;;;;;;;;;;;;;;;15.44;58.72;98858.69;4450461;32;20012;-84
2022/04/23 06:13:01;;;;;;;;;;;;;;;15.26;58.97;98860.78;4426158;32;20050;-84
2022/04/23 06:15:28;;;;;;;;;;;;;;;15.00;59.82;98868.22;4424862;32;20032;-84
2022/04/23 06:17:55;;;;;;;;;;;;;;;15.32;58.16;98871.09;4425952;32;19977;-83
2022/04/23 06:20:22;;;;;;;;;;;;;;;15.67;56.85;98861.75;4427105;32;20357;-85
2022/04/23 06:22:49;;;;;;;;;;;;;;;15.69;57.19;98875.59;4438932;32;19989;-82
2022/04/23 06:25:16;;;;;;;;;;;;;;;15.83;57.73;98877.97;4427460;32;19985;-81
2022/04/23 06:27:43;;;;;;;;;;;;;;;16.05;56.30;98878.38;4434725;32;19989;-82
2022/04/23 06:30:09;;;;;;;;;;;;;;;16.14;55.15;98891.19;4428035;32;19994;-86
2022/04/23 06:32:37;;;;;;;;;;;;;;;15.90;55.46;98892.59;4414835;32;21220;-87
2022/04/23 06:35:04;;;;;;;;;;;;;;;16.07;55.57;98896.59;4416752;32;19994;-86
2022/04/23 06:37:32;;;;;;;;;;;;;;;15.97;56.25;98898.53;4397486;32;20335;-86
2022/04/23 06:39:59;;;;;;;;;;;;;;;15.98;57.17;98905.47;4408135;32;20637;-89
2022/04/23 06:42:25;;;;;;;;;;;;;;;15.93;57.53;98907.34;4410644;32;19986;-90
2022/04/23 06:44:53;;;;;;;;;;;;;;;15.93;57.43;98904.72;4414295;32;20351;-91
2022/04/23 06:47:20;;;;;;;;;;;;;;;16.07;56.82;98913.09;4420665;32;19981;-87
2022/04/23 06:49:47;;;;;;;;;;;;;;;16.11;56.18;98904.31;4400905;32;19989;-90
2022/04/23 06:52:14;;;;;;;;;;;;;;;16.09;56.26;98906.13;4412604;32;20008;-90
2022/04/23 06:54:41;;;;;;;;;;;;;;;16.33;55.03;98914.28;4409968;32;19982;-89
2022/04/23 06:57:08;;;;;;;;;;;;;;;16.14;56.58;98919.91;4426715;32;19992;-89
2022/04/23 06:59:34;;;;;;;;;;;;;;;15.86;57.43;98924.88;4413243;32;20049;-89
2022/04/23 07:02:03;;;;;;;;;;;;;;;15.81;57.51;98922.34;4412271;32;20004;-89
2022/04/23 07:04:30;;;;;;;;;;;;;;;16.25;55.34;98922.31;4414702;32;20544;-89
2022/04/23 07:06:57;;;;;;;;;;;;;;;16.07;56.20;98925.31;4412180;32;20000;-89
2022/04/23 07:09:24;;;;;;;;;;;;;;;15.92;56.92;98934.31;4419604;32;19994;-90
2022/04/23 07:11:51;;;;;;;;;;;;;;;15.71;58.13;98931.25;4425328;32;19985;-89
2022/04/23 07:14:18;;;;;;;;;;;;;;;16.03;57.22;98930.59;4428094;32;20003;-86
2022/04/23 07:16:47;;;;;;;;;;;;;;;15.65;57.94;98940.91;4417539;32;19985;-91
2022/04/23 07:19:14;;;;;;;;;;;;;;;16.02;56.72;98933.25;4422935;32;20048;-90
2022/04/23 07:21:41;;;;;;;;;;;;;;;16.15;56.57;98937.31;4427996;32;19989;-90
2022/04/23 07:24:10;;;;;;;;;;;;;;;16.24;55.61;98937.12;4416548;32;19993;-85
2022/04/23 07:26:37;;;;;;;;;;;;;;;16.30;56.05;98940.47;4414118;32;20369;-86
2022/04/23 07:29:06;;;;;;;;;;;;;;;16.23;56.20;98930.16;4416750;32;20036;-87
2022/04/23 07:31:33;;;;;;;;;;;;;;;16.25;55.89;98933.63;4418552;32;19977;-90
2022/04/23 07:39:32;;;;;;;;;;;;;;;16.21;55.98;98958.09;4429036;32;19990;-84
2022/04/23 07:42:00;;;;;;;;;;;;;;;16.42;54.89;98958.50;4421242;32;20445;-89
2022/04/23 07:44:26;;;;;;;;;;;;;;;16.47;54.50;98954.06;4421935;32;20053;-87
2022/04/23 07:46:53;;;;;;;;;;;;;;;16.41;54.91;98954.19;4406316;32;20007;-87
2022/04/23 07:49:21;;;;;;;;;;;;;;;16.54;54.89;98953.00;4417274;32;20004;-84
2022/04/23 07:51:47;;;;;;;;;;;;;;;16.36;55.60;98956.03;4422426;32;19974;-90
2022/04/23 07:54:14;;;;;;;;;;;;;;;16.16;56.30;98959.91;4402195;32;19994;-88
2022/04/23 07:56:42;;;;;;;;;;;;;;;16.31;56.34;98963.13;4412805;32;19981;-83
2022/04/23 07:59:09;;;;;;;;;;;;;;;16.14;57.08;98966.91;4415524;32;20066;-88
2022/04/23 08:01:36;;;;;;;;;;;;;;;15.90;59.24;98972.66;4407749;32;20031;-84
2022/04/23 08:04:04;;;;;;;;;;;;;;;16.13;58.16;98980.88;4420652;32;20027;-84
2022/04/23 08:06:31;;;;;;;;;;;;;;;16.37;56.36;98976.00;4404968;32;19981;-87
2022/04/23 08:08:59;;;;;;;;;;;;;;;15.96;58.63;98977.75;4410457;32;19993;-83
2022/04/23 08:11:26;;;;;;;;;;;;;;;15.98;58.40;98983.78;4427159;32;19994;-84
2022/04/23 08:13:53;;;;;;;;;;;;;;;16.02;58.96;98982.84;4428951;32;20004;-84
2022/04/23 08:16:20;;;;;;;;;;;;;;;15.84;58.65;98977.97;4421880;32;19994;-85
2022/04/23 08:18:47;;;;;;;;;;;;;;;16.26;57.44;98973.63;4408586;32;19997;-84
2022/04/23 08:21:14;;;;;;;;;;;;;;;16.48;56.23;98979.25;4398149;32;20016;-85
2022/04/23 08:23:42;;;;;;;;;;;;;;;16.35;56.46;98980.44;4398523;32;19993;-85
2022/04/23 08:26:09;;;;;;;;;;;;;;;16.57;56.21;98980.81;4412544;32;19992;-83
2022/04/23 08:31:22;;;;;;;;;;;;;;;16.46;57.52;98983.66;4406670;32;20055;-81
2022/04/23 08:33:58;;;;;;;;;;;;;;;16.76;54.63;98991.75;4411612;32;19982;-84
2022/04/23 08:36:29;;;;;;;;;;;;;;;16.90;53.76;98989.69;4413407;32;20012;-83
2022/04/23 08:38:56;;;;;;;;;;;;;;;16.71;56.06;98979.59;4411593;32;19994;-83
2022/04/23 08:41:30;;;;;;;;;;;;;;;16.49;54.52;98979.22;4413421;32;19978;-85
2022/04/23 08:44:05;;;;;;;;;;;;;;;17.17;53.53;98978.56;4412951;32;20007;-86
2022/04/23 08:46:36;;;;;;;;;;;;;;;17.23;54.90;98979.28;4399968;32;20049;-82
2022/04/23 08:49:13;;;;;;;;;;;;;;;17.46;52.73;98984.81;4412142;32;20039;-85
2022/04/23 08:51:41;;;;;;;;;;;;;;;17.60;52.17;98982.69;4412570;32;19993;-83
2022/04/23 08:54:09;;;;;;;;;;;;;;;17.84;51.32;98980.37;4411577;32;19997;-84
2022/04/23 08:56:37;;;;;;;;;;;;;;;17.77;50.52;98986.66;4412148;32;20024;-84
2022/04/23 08:59:04;;;;;;;;;;;;;;;17.56;52.07;98982.84;4411381;32;20053;-84
2022/04/23 09:01:31;;;;;;;;;;;;;;;17.46;51.53;98992.69;4411397;32;20002;-84
2022/04/23 09:03:58;;;;;;;;;;;;;;;17.62;51.15;98996.63;4412993;32;20388;-84
2022/04/23 09:06:36;;;;;;;;;;;;;;;17.16;52.63;99008.22;4411370;32;19990;-85
2022/04/23 09:09:13;;;;;;;;;;;;;;;17.52;51.95;99010.00;4392437;32;19986;-84
2022/04/23 09:11:42;;;;;;;;;;;;;;;17.41;51.52;99003.25;4411520;32;21007;-84
2022/04/23 09:14:09;;;;;;;;;;;;;;;17.43;52.35;99011.06;4412953;32;19981;-84
2022/04/23 09:25:10;;;;;;;;;;;;;;;16.19;54.57;99021.66;4396572;32;20314;-83
2022/04/23 09:27:38;;;;;;;;;;;;;;;17.05;52.22;99018.09;4396121;32;19994;-83
2022/04/23 09:30:06;;;;;;;;;;;;;;;17.26;51.46;99018.44;4395897;32;20261;-84
2022/04/23 09:32:34;;;;;;;;;;;;;;;17.47;51.17;99022.31;4395868;32;19990;-84
2022/04/23 09:35:04;;;;;;;;;;;;;;;17.46;52.34;99021.47;4382961;32;19990;-84
2022/04/23 09:40:21;;;;;;;;;;;;;;;17.42;51.42;99014.56;4397486;32;19986;-84
2022/04/23 09:42:56;;;;;;;;;;;;;;;17.61;49.87;99026.31;4397442;32;20001;-83
2022/04/23 09:45:32;;;;;;;;;;;;;;;17.24;50.80;99030.72;4375122;32;20034;-83
2022/04/23 09:48:05;;;;;;;;;;;;;;;16.93;53.04;99031.44;4388211;32;20002;-83
2022/04/23 09:50:38;;;;;;;;;;;;;;;17.00;53.22;99022.56;4387002;32;20016;-84
2022/04/23 09:53:09;;;;;;;;;;;;;;;16.60;54.20;99026.03;4399207;32;19994;-83
2022/04/23 09:55:35;;;;;;;;;;;;;;;17.13;52.12;99034.47;4401191;32;20033;-83
2022/04/23 09:58:03;;;;;;;;;;;;;;;17.11;52.33;99036.25;4414675;32;20023;-84
2022/04/23 10:00:38;;;;;;;;;;;;;;;16.85;52.59;99036.00;4414614;32;20006;-85
2022/04/23 10:03:07;;;;;;;;;;;;;;;16.76;53.78;99033.59;4413389;32;20043;-85
2022/04/23 10:05:38;;;;;;;;;;;;;;;16.80;53.38;99036.06;4413184;32;20064;-85
2022/04/23 10:08:13;;;;;;;;;;;;;;;16.67;54.32;99035.44;4402070;32;20364;-86
2022/04/23 10:10:52;;;;;;;;;;;;;;;16.87;53.42;99042.03;4403231;32;19986;-85
2022/04/23 10:13:21;;;;;;;;;;;;;;;16.79;53.50;99043.97;4409062;32;20031;-83
2022/04/23 10:15:48;;;;;;;;;;;;;;;16.72;53.98;99048.44;4399372;32;20053;-83
2022/04/23 10:18:15;;;;;;;;;;;;;;;17.00;52.69;99058.28;4412848;32;20038;-84
2022/04/23 10:21:07;;;;;;;;;;;;;;;16.42;54.74;99057.75;4399433;32;20009;-83
2022/04/23 10:23:43;;;;;;;;;;;;;;;16.48;54.40;99057.63;4398072;32;20050;-84
2022/04/23 10:26:18;;;;;;;;;;;;;;;16.69;54.08;99054.59;4398098;32;20008;-83
2022/04/23 10:28:44;;;;;;;;;;;;;;;16.66;55.21;99065.09;4381562;32;19978;-83
2022/04/23 10:31:15;;;;;;;;;;;;;;;16.84;53.94;99052.53;4405477;32;20009;-84
2022/04/23 10:33:43;;;;;;;;;;;;;;;16.83;53.49;99056.06;4403217;32;20036;-83
2022/04/23 10:36:10;;;;;;;;;;;;;;;16.82;53.91;99054.34;4397569;32;20349;-84
2022/04/23 10:38:42;;;;;;;;;;;;;;;17.05;52.65;99052.06;4405263;32;19997;-83
2022/04/23 10:41:10;;;;;;;;;;;;;;;16.94;53.26;99054.06;4414664;32;19981;-83
2022/04/23 10:44:00;;;;;;;;;;;;;;;17.10;53.73;99045.00;4414555;32;19990;-83
2022/04/23 10:46:36;;;;;;;;;;;;;;;17.11;53.56;99054.56;4416354;32;19982;-84
2022/04/23 10:49:13;;;;;;;;;;;;;;;17.14;53.79;99054.47;4414078;32;20312;-84
2022/04/23 10:51:54;;;;;;;;;;;;;;;16.96;53.64;99065.34;4409617;32;20032;-83
2022/04/23 10:54:41;;;;;;;;;;;;;;;16.95;53.88;99071.50;4399333;32;20052;-83
2022/04/23 10:57:15;;;;;;;;;;;;;;;17.27;53.11;99069.91;4410842;32;19993;-81
2022/04/23 10:59:48;;;;;;;;;;;;;;;17.45;52.12;99072.03;4412845;32;20597;-82
2022/04/23 11:02:21;;;;;;;;;;;;;;;17.32;52.28;99081.09;4404263;32;19990;-83
2022/04/23 11:12:14;;;;;;;;;;;;;;;16.69;54.38;99083.34;4409762;32;19994;-82
2022/04/23 11:13:23;;;;;;;;;;;;;;;17.45;50.39;99069.44;4412337;32;20464;-83
2022/04/23 11:16:06;;;;;;;;;;;;;;;17.27;51.85;99077.75;4409119;32;19981;-84
2022/04/23 11:18:33;;;;;;;;;;;;;;;17.05;51.91;99075.59;4404483;32;19979;-84
2022/04/23 11:21:06;;;;;;;;;;;;;;;17.13;51.22;99070.19;4383342;32;20053;-85
2022/04/23 11:23:34;;;;;;;;;;;;;;;16.76;53.85;99064.94;4388937;32;20260;-84
2022/04/23 11:26:02;;;;;;;;;;;;;;;17.30;52.57;99072.44;4409923;32;20022;-83
2022/04/23 11:28:29;;;;;;;;;;;;;;;17.42;51.49;99072.13;4396071;32;20640;-84
2022/04/23 11:31:01;;;;;;;;;;;;;;;17.44;50.87;99083.41;4409699;32;19981;-84
2022/04/23 11:33:29;;;;;;;;;;;;;;;17.35;52.13;99075.78;4388250;32;19986;-84
2022/04/23 11:35:56;;;;;;;;;;;;;;;17.57;51.84;99076.97;4398755;32;20065;-83
2022/04/23 11:38:27;;;;;;;;;;;;;;;17.42;53.14;99074.72;4411007;32;20032;-83
2022/04/23 11:40:53;;;;;;;;;;;;;;;17.55;52.14;99075.31;4396976;32;20032;-84
2022/04/23 11:43:27;;;;;;;;;;;;;;;17.42;53.10;99078.25;4412739;32;20001;-84
2022/04/23 11:45:57;;;;;;;;;;;;;;;17.72;52.49;99081.00;4411077;32;19982;-83
2022/04/23 11:48:24;;;;;;;;;;;;;;;17.63;53.11;99079.47;4411012;32;19986;-83
2022/04/23 11:50:52;;;;;;;;;;;;;;;17.78;51.74;99086.09;4409619;32;19982;-84
2022/04/23 11:53:19;;;;;;;;;;;;;;;17.89;50.82;99088.44;4405088;32;20788;-82
2022/04/23 11:55:48;;;;;;;;;;;;;;;17.73;51.20;99084.47;4412613;32;20870;-83
2022/04/23 11:58:18;;;;;;;;;;;;;;;17.91;50.55;99086.66;4407228;32;20670;-82
2022/04/23 12:00:46;;;;;;;;;;;;;;;17.91;50.23;99084.03;4408804;32;20004;-83
2022/04/23 12:03:13;;;;;;;;;;;;;;;17.91;50.74;99076.19;4410059;32;20351;-86
2022/04/23 12:05:40;;;;;;;;;;;;;;;18.01;51.14;99082.88;4411009;32;20373;-84
2022/04/23 12:08:11;;;;;;;;;;;;;;;18.36;48.78;99075.84;4408957;32;20002;-81
2022/04/23 12:10:40;;;;;;;;;;;;;;;17.93;49.63;99071.75;4410837;32;19970;-85
2022/04/23 12:13:10;;;;;;;;;;;;;;;18.41;48.97;99068.72;4413219;32;20085;-83
2022/04/23 12:15:46;;;;;;;;;;;;;;;18.61;49.39;99067.28;4412868;32;19993;-81
2022/04/23 12:18:19;;;;;;;;;;;;;;;18.48;49.23;99067.62;4412742;32;19993;-83
2022/04/23 12:20:46;;;;;;;;;;;;;;;18.53;48.46;99060.47;4403852;32;20001;-82
2022/04/23 12:23:13;;;;;;;;;;;;;;;18.76;48.49;99056.34;4395768;32;20048;-81
2022/04/23 12:25:40;;;;;;;;;;;;;;;18.62;48.51;99061.97;4405165;32;19977;-82
2022/04/23 12:42:04;;;;;;;;;;;;;;;19.05;45.35;99045.84;4405034;32;20942;-81
2022/04/23 12:44:32;;;;;;;;;;;;;;;19.40;44.72;99046.50;4404392;32;20040;-82
2022/04/23 12:47:00;;;;;;;;;;;;;;;19.36;45.18;99050.13;4403119;32;20371;-83
2022/04/23 12:49:47;;;;;;;;;;;;;;;19.16;43.89;99049.91;4403437;32;20351;-81
2022/04/23 12:52:15;;;;;;;;;;;;;;;19.68;44.09;99045.59;4402248;32;19981;-81
2022/04/23 12:55:04;;;;;;;;;;;;;;;19.81;43.06;99044.25;4400207;32;20001;-80
2022/04/23 12:57:31;;;;;;;;;;;;;;;19.93;42.82;99049.09;4407371;32;19997;-82
2022/04/23 12:59:58;;;;;;;;;;;;;;;19.85;42.41;99055.56;4403787;32;19989;-85
2022/04/23 13:02:24;;;;;;;;;;;;;;;19.97;42.23;99061.25;4400494;32;20000;-82
2022/04/23 13:04:53;;;;;;;;;;;;;;;20.12;42.71;99053.72;4403563;32;19989;-83
2022/04/23 13:10:06;;;;;;;;;;;;;;;20.20;41.65;99049.91;4403855;32;19986;-81
2022/04/23 13:12:35;;;;;;;;;;;;;;;20.10;41.80;99047.66;4399323;32;19978;-82
2022/04/23 13:15:04;;;;;;;;;;;;;;;20.34;41.35;99049.41;4403358;32;20005;-82
2022/04/23 13:17:31;;;;;;;;;;;;;;;20.02;42.20;99052.34;4402258;32;20018;-88
2022/04/23 13:19:58;;;;;;;;;;;;;;;19.47;43.71;99055.87;4403943;32;20000;-79
2022/04/23 13:22:24;;;;;;;;;;;;;;;19.87;42.03;99054.56;4412787;32;19992;-81
2022/04/23 13:24:52;;;;;;;;;;;;;;;20.10;42.14;99039.75;4404683;32;19990;-80
2022/04/23 13:27:19;;;;;;;;;;;;;;;19.63;44.07;99050.97;4403495;32;20059;-81
2022/04/23 13:29:52;;;;;;;;;;;;;;;19.73;42.90;99046.31;4402050;32;19990;-80
2022/04/23 13:32:19;;;;;;;;;;;;;;;19.64;42.80;99041.37;4404759;32;20337;-82
2022/04/23 13:34:46;;;;;;;;;;;;;;;19.56;42.28;99044.22;4401313;32;20400;-81
2022/04/23 13:37:12;;;;;;;;;;;;;;;19.80;42.79;99042.56;4406046;32;20081;-81
2022/04/23 13:39:40;;;;;;;;;;;;;;;19.25;44.20;99044.38;4405822;32;19981;-81
2022/04/23 13:42:07;;;;;;;;;;;;;;;19.51;42.86;99052.25;4402571;32;19998;-80
2022/04/23 13:44:34;;;;;;;;;;;;;;;19.65;42.97;99058.81;4403804;32;20009;-80
2022/04/23 13:47:01;;;;;;;;;;;;;;;19.80;42.18;99053.06;4407573;32;19986;-80
2022/04/23 13:49:28;;;;;;;;;;;;;;;19.09;42.96;99053.63;4398563;32;19986;-81
2022/04/23 13:51:55;;;;;;;;;;;;;;;19.33;43.53;99052.84;4405801;32;20002;-80
2022/04/23 21:07:51;;;;;;;;;;;;;;;16.33;56.43;99104.94;5049644;27;20020;-75
2022/04/23 21:10:18;;;;;;;;;;;;;;;16.33;56.44;99112.78;4252665;33;20003;-73
2022/04/23 21:12:45;;;;;;;;;;;;;;;16.01;57.38;99122.94;4248743;33;19995;-77
2022/04/23 21:15:12;;;;;;;;;;;;;;;16.22;56.88;99116.47;4256157;33;20392;-75
2022/04/23 21:17:39;;;;;;;;;;;;;;;16.37;56.55;99114.44;4240410;33;19998;-75
2022/04/23 21:20:06;;;;;;;;;;;;;;;16.45;56.42;99123.00;4254643;33;20097;-74
2022/04/23 21:22:37;;;;;;;;;;;;;;;16.36;56.64;99123.19;4253747;33;19985;-78
2022/04/23 21:25:05;;;;;;;;;;;;;;;16.49;56.26;99114.22;4252193;33;20706;-74
2022/04/23 21:27:31;;;;;;;;;;;;;;;16.57;55.98;99117.53;4251027;33;20060;-72
2022/04/23 21:29:58;;;;;;;;;;;;;;;16.41;56.51;99111.75;4246904;33;20048;-75
2022/04/23 21:32:27;;;;;;;;;;;;;;;16.48;56.44;99112.50;4247112;33;19982;-73
2022/04/23 21:34:54;;;;;;;;;;;;;;;16.43;56.72;99109.09;4260152;33;20046;-75
2022/04/23 21:37:22;;;;;;;;;;;;;;;16.32;57.06;99117.16;4261144;33;20008;-72
2022/04/23 21:39:49;;;;;;;;;;;;;;;16.39;56.92;99113.53;4253349;33;19974;-75
2022/04/23 21:45:02;;;;;;;;;;;;;;;16.59;56.56;99105.31;4262411;33;19978;-74
2022/04/23 21:47:29;;;;;;;;;;;;;;;16.38;57.05;99100.50;4245562;33;20069;-72
2022/04/23 21:49:57;;;;;;;;;;;;;;;15.90;58.80;99103.13;4254517;33;19994;-73
2022/04/23 21:52:24;;;;;;;;;;;;;;;16.11;58.08;99105.34;4239357;33;20002;-75
2022/04/23 21:54:52;;;;;;;;;;;;;;;16.10;58.29;99106.25;4254112;33;19978;-77
2022/04/23 21:57:22;;;;;;;;;;;;;;;16.23;57.96;99104.25;4248076;33;19996;-75
2022/04/23 21:59:52;;;;;;;;;;;;;;;16.20;58.03;99099.97;4249235;33;19986;-75
2022/04/23 22:02:19;;;;;;;;;;;;;;;16.21;58.05;99101.69;4249085;33;20932;-76
2022/04/23 22:04:47;;;;;;;;;;;;;;;16.27;58.07;99098.09;4250165;33;20000;-71
2022/04/23 22:07:21;;;;;;;;;;;;;;;16.19;58.33;99095.63;4256670;33;20396;-73
2022/04/23 22:09:49;;;;;;;;;;;;;;;16.25;58.18;99095.53;4255737;33;19982;-74
2022/04/23 22:12:16;;;;;;;;;;;;;;;16.26;58.24;99085.94;4251636;33;19991;-78
2022/04/23 22:14:43;;;;;;;;;;;;;;;16.10;58.82;99080.13;4258597;33;20043;-76
2022/04/23 22:17:10;;;;;;;;;;;;;;;16.19;58.69;99085.19;4251693;33;19985;-75
2022/04/23 22:19:37;;;;;;;;;;;;;;;16.19;58.78;99082.56;4252727;33;19985;-74
2022/04/23 22:22:04;;;;;;;;;;;;;;;15.97;59.65;99081.25;4258017;33;19989;-79
2022/04/23 22:24:31;;;;;;;;;;;;;;;16.01;59.58;99080.31;4238945;33;19982;-78
2022/04/23 22:26:58;;;;;;;;;;;;;;;15.82;60.42;99090.19;4253321;33;20756;-77
2022/04/23 22:29:26;;;;;;;;;;;;;;;15.87;60.16;99090.16;4257786;33;20388;-74
2022/04/23 22:31:53;;;;;;;;;;;;;;;15.54;61.41;99089.78;4238826;33;20038;-77
2022/04/23 22:34:19;;;;;;;;;;;;;;;15.74;60.54;99085.13;4251385;33;19989;-76
2022/04/23 22:36:47;;;;;;;;;;;;;;;15.76;60.46;99080.75;4253453;33;20022;-75
2022/04/23 22:39:14;;;;;;;;;;;;;;;15.86;60.19;99086.69;4259544;33;20000;-78
2022/04/23 22:41:41;;;;;;;;;;;;;;;15.72;60.54;99083.44;4251943;33;19977;-77
2022/04/23 22:44:08;;;;;;;;;;;;;;;15.66;60.83;99073.91;4251791;33;19978;-74
2022/04/23 22:46:35;;;;;;;;;;;;;;;15.74;60.47;99072.09;4251955;33;20031;-76
2022/04/23 22:49:03;;;;;;;;;;;;;;;15.64;60.60;99067.03;4252101;33;19985;-76
2022/04/23 22:51:30;;;;;;;;;;;;;;;15.58;60.73;99067.97;4252010;33;20023;-75
2022/04/23 22:53:57;;;;;;;;;;;;;;;15.55;61.03;99062.81;4253121;33;19985;-77
2022/04/23 22:56:24;;;;;;;;;;;;;;;15.42;61.45;99054.34;4241536;33;20040;-78
2022/04/23 22:58:50;;;;;;;;;;;;;;;15.50;61.38;99054.19;4239116;33;19989;-73
2022/04/23 23:01:17;;;;;;;;;;;;;;;15.53;61.21;99056.75;4253511;33;19985;-78
2022/04/23 23:03:45;;;;;;;;;;;;;;;15.40;61.71;99050.00;4258277;33;19997;-74
2022/04/23 23:06:13;;;;;;;;;;;;;;;15.45;61.64;99038.63;4258248;33;20028;-80
2022/04/23 23:08:41;;;;;;;;;;;;;;;15.51;61.65;99048.09;4247938;33;19978;-75
2022/04/23 23:11:10;;;;;;;;;;;;;;;15.66;61.08;99047.81;4237569;33;19996;-74
2022/04/23 23:13:37;;;;;;;;;;;;;;;15.27;62.34;99050.22;4246862;33;20000;-74
2022/04/23 23:16:05;;;;;;;;;;;;;;;15.64;61.06;99044.41;4238076;33;20012;-80
2022/04/23 23:18:32;;;;;;;;;;;;;;;15.63;61.11;99047.87;4236361;33;19993;-80
2022/04/23 23:21:00;;;;;;;;;;;;;;;15.50;61.42;99044.62;4243576;33;20048;-78
2022/04/23 23:23:27;;;;;;;;;;;;;;;15.41;61.83;99051.72;4226504;33;20041;-75
2022/04/23 23:25:54;;;;;;;;;;;;;;;15.60;61.12;99050.53;4240249;33;19990;-76
2022/04/23 23:28:21;;;;;;;;;;;;;;;15.45;61.66;99043.00;4242398;33;20718;-76
2022/04/23 23:30:48;;;;;;;;;;;;;;;15.46;61.62;99039.50;4245129;33;20414;-74
2022/04/23 23:33:15;;;;;;;;;;;;;;;15.54;61.26;99042.84;4238516;33;19989;-77
2022/04/23 23:35:41;;;;;;;;;;;;;;;15.47;61.58;99051.62;4235956;33;20046;-77
2022/04/23 23:38:08;;;;;;;;;;;;;;;15.13;62.78;99044.34;4235345;33;20016;-78
2022/04/23 23:40:35;;;;;;;;;;;;;;;15.22;62.65;99043.34;3913245;33;10004610;-77
2022/04/23 23:43:03;;;;;;;;;;;;;;;15.23;62.49;99048.53;4193826;34;19999;-76
2022/04/23 23:45:31;;;;;;;;;;;;;;;15.01;63.37;99047.16;4196066;34;19983;-76
2022/04/23 23:47:58;;;;;;;;;;;;;;;15.15;62.99;99054.75;4197999;33;20052;-79
2022/04/23 23:50:25;;;;;;;;;;;;;;;15.09;63.15;99051.38;4196803;34;19978;-76
2022/04/23 23:52:52;;;;;;;;;;;;;;;15.21;62.77;99050.31;4197514;34;20006;-73
2022/04/23 23:55:18;;;;;;;;;;;;;;;15.21;62.75;99039.03;4202013;34;20031;-77
2022/04/23 23:57:45;;;;;;;;;;;;;;;15.23;62.65;99047.69;4195878;34;19998;-78
